createdAt,value
2024-01-11T00:01:47.913Z,-9.61
2024-01-11T00:04:14.715Z,-9.63
2024-01-11T00:06:45.222Z,-9.62
2024-01-11T00:09:12.003Z,-9.64
2024-01-11T00:11:38.529Z,-9.63
2024-01-11T00:14:05.308Z,-9.57
2024-01-11T00:16:31.802Z,-9.49
2024-01-11T00:18:58.517Z,-9.34
2024-01-11T00:21:25.110Z,-9.32
2024-01-11T00:23:51.486Z,-9.30
2024-01-11T00:26:18.250Z,-9.32
2024-01-11T00:28:44.800Z,-9.38
2024-01-11T00:31:12.059Z,-9.44
2024-01-11T00:33:38.906Z,-9.41
2024-01-11T00:36:05.723Z,-9.24
2024-01-11T00:38:32.375Z,-9.19
2024-01-11T00:40:58.992Z,-9.21
2024-01-11T00:43:25.680Z,-9.36
2024-01-11T00:45:52.134Z,-9.44
2024-01-11T00:48:18.691Z,-9.52
2024-01-11T00:50:46.003Z,-9.51
2024-01-11T00:53:15.290Z,-9.45
2024-01-11T00:55:41.927Z,-9.37
2024-01-11T00:58:08.494Z,-9.34
2024-01-11T01:00:35.021Z,-9.36
2024-01-11T01:03:01.783Z,-9.38
2024-01-11T01:05:28.327Z,-9.40
2024-01-11T01:07:54.915Z,-9.45
2024-01-11T01:10:21.493Z,-9.57
2024-01-11T01:12:48.196Z,-9.68
2024-01-11T01:15:15.615Z,-9.72
2024-01-11T01:17:42.484Z,-9.72
2024-01-11T01:20:10.059Z,-9.76
2024-01-11T01:22:36.678Z,-9.80
2024-01-11T01:25:03.474Z,-9.78
2024-01-11T01:27:29.994Z,-9.77
2024-01-11T01:29:56.454Z,-9.74
2024-01-11T01:32:23.254Z,-9.71
2024-01-11T01:34:50.295Z,-9.72
2024-01-11T01:37:17.016Z,-9.69
2024-01-11T01:39:43.645Z,-9.68
2024-01-11T01:42:10.159Z,-9.67
2024-01-11T01:44:36.763Z,-9.56
2024-01-11T01:47:05.721Z,-9.50
2024-01-11T01:49:32.947Z,-9.45
2024-01-11T01:51:59.705Z,-9.32
2024-01-11T01:54:27.483Z,-9.16
2024-01-11T01:56:54.954Z,-9.06
2024-01-11T01:59:22.434Z,-9.04
2024-01-11T02:01:49.347Z,-8.96
2024-01-11T02:04:16.460Z,-8.94
2024-01-11T02:06:45.889Z,-8.87
2024-01-11T02:09:14.325Z,-8.84
2024-01-11T02:11:42.698Z,-8.91
2024-01-11T02:14:10.014Z,-8.96
2024-01-11T02:16:36.581Z,-8.92
2024-01-11T02:19:04.161Z,-8.84
2024-01-11T02:21:34.151Z,-8.72
2024-01-11T02:24:08.447Z,-8.61
2024-01-11T02:26:35.224Z,-8.61
2024-01-11T02:29:01.875Z,-8.64
2024-01-11T02:31:28.596Z,-8.66
2024-01-11T02:33:56.602Z,-8.60
2024-01-11T02:36:23.213Z,-8.62
2024-01-11T02:38:51.581Z,-8.64
2024-01-11T02:41:19.587Z,-8.72
2024-01-11T02:43:50.146Z,-8.83
2024-01-11T02:46:17.752Z,-8.87
2024-01-11T02:48:44.721Z,-8.91
2024-01-11T02:51:11.286Z,-8.91
2024-01-11T02:53:38.158Z,-8.87
2024-01-11T02:56:05.175Z,-8.82
2024-01-11T02:58:31.870Z,-8.84
2024-01-11T03:00:58.411Z,-8.92
2024-01-11T03:03:24.939Z,-9.05
2024-01-11T03:05:51.592Z,-9.18
2024-01-11T03:08:18.260Z,-9.23
2024-01-11T03:10:44.769Z,-9.22
2024-01-11T03:13:11.223Z,-9.15
2024-01-11T03:15:37.877Z,-9.15
2024-01-11T03:18:04.905Z,-9.19
2024-01-11T03:20:31.755Z,-9.18
2024-01-11T03:22:58.345Z,-9.22
2024-01-11T03:25:25.081Z,-9.22
2024-01-11T03:27:51.515Z,-9.29
2024-01-11T03:30:18.231Z,-9.32
2024-01-11T03:32:45.140Z,-9.52
2024-01-11T03:35:12.131Z,-9.52
2024-01-11T03:37:38.874Z,-9.64
2024-01-11T03:40:06.316Z,-9.75
2024-01-11T03:42:32.777Z,-9.76
2024-01-11T03:44:59.234Z,-9.80
2024-01-11T03:47:26.051Z,-9.71
2024-01-11T03:49:52.570Z,-9.59
2024-01-11T03:52:19.011Z,-9.50
2024-01-11T03:54:45.819Z,-9.42
2024-01-11T03:57:12.544Z,-9.35
2024-01-11T03:59:39.033Z,-9.31
2024-01-11T04:02:05.903Z,-9.30
2024-01-11T04:04:32.802Z,-9.38
2024-01-11T04:06:59.292Z,-9.34
2024-01-11T04:09:26.022Z,-9.37
2024-01-11T04:11:52.442Z,-9.42
2024-01-11T04:14:19.004Z,-9.60
2024-01-11T04:16:45.791Z,-9.77
2024-01-11T04:19:12.519Z,-9.90
2024-01-11T04:21:41.853Z,-9.94
2024-01-11T04:24:08.424Z,-9.96
2024-01-11T04:26:35.547Z,-9.98
2024-01-11T04:29:02.329Z,-9.99
2024-01-11T04:31:29.112Z,-9.98
2024-01-11T04:33:55.698Z,-9.99
2024-01-11T04:36:22.212Z,-10.00
2024-01-11T04:38:48.755Z,-9.98
2024-01-11T04:41:16.225Z,-10.05
2024-01-11T04:43:44.356Z,-10.08
2024-01-11T04:46:18.199Z,-10.02
2024-01-11T04:48:45.397Z,-9.97
2024-01-11T04:51:13.434Z,-9.95
2024-01-11T04:53:40.974Z,-9.96
2024-01-11T04:56:08.878Z,-9.93
2024-01-11T04:58:36.666Z,-9.90
2024-01-11T05:01:03.254Z,-9.88
2024-01-11T05:03:30.274Z,-9.84
2024-01-11T05:05:57.279Z,-9.78
2024-01-11T05:08:24.484Z,-9.70
2024-01-11T05:10:51.555Z,-9.68
2024-01-11T05:13:18.960Z,-9.73
2024-01-11T05:15:46.021Z,-9.69
2024-01-11T05:18:13.170Z,-9.63
2024-01-11T05:20:39.958Z,-9.58
2024-01-11T05:23:06.467Z,-9.58
2024-01-11T05:25:34.730Z,-9.52
2024-01-11T05:28:04.881Z,-9.51
2024-01-11T05:30:32.154Z,-9.51
2024-01-11T05:32:59.236Z,-9.56
2024-01-11T05:35:28.681Z,-9.57
2024-01-11T05:37:58.348Z,-9.54
2024-01-11T05:40:24.907Z,-9.55
2024-01-11T05:42:51.439Z,-9.53
2024-01-11T05:45:19.725Z,-9.62
2024-01-11T05:47:48.985Z,-9.68
2024-01-11T05:50:15.978Z,-9.76
2024-01-11T05:52:43.302Z,-9.71
2024-01-11T05:55:09.946Z,-9.60
2024-01-11T05:57:36.383Z,-9.56
2024-01-11T06:00:03.102Z,-9.50
2024-01-11T06:02:29.655Z,-9.44
2024-01-11T06:04:56.112Z,-9.43
2024-01-11T06:07:22.577Z,-9.39
2024-01-11T06:09:49.097Z,-9.35
2024-01-11T06:12:16.303Z,-9.33
2024-01-11T06:14:42.877Z,-9.33
2024-01-11T06:17:12.140Z,-9.41
2024-01-11T06:19:42.312Z,-9.46
2024-01-11T06:22:08.864Z,-9.42
2024-01-11T06:24:35.312Z,-9.45
2024-01-11T06:27:01.926Z,-9.55
2024-01-11T06:29:28.651Z,-9.64
2024-01-11T06:31:55.091Z,-9.66
2024-01-11T06:34:21.563Z,-9.67
2024-01-11T06:36:47.970Z,-9.60
2024-01-11T06:39:14.407Z,-9.60
2024-01-11T06:41:41.222Z,-9.59
2024-01-11T06:44:07.750Z,-9.56
2024-01-11T06:46:34.203Z,-9.63
2024-01-11T06:49:01.158Z,-9.67
2024-01-11T06:51:27.680Z,-9.67
2024-01-11T06:53:54.146Z,-9.62
2024-01-11T06:56:22.040Z,-9.66
2024-01-11T06:58:49.492Z,-9.68
2024-01-11T07:01:16.107Z,-9.66
2024-01-11T07:03:42.920Z,-9.66
2024-01-11T07:06:09.720Z,-9.64
2024-01-11T07:08:36.594Z,-9.57
2024-01-11T07:11:03.771Z,-9.47
2024-01-11T07:13:33.423Z,-9.53
2024-01-11T07:16:00.039Z,-9.51
2024-01-11T07:18:27.188Z,-9.57
2024-01-11T07:20:54.269Z,-9.61
2024-01-11T07:23:21.911Z,-9.61
2024-01-11T07:25:48.723Z,-9.68
2024-01-11T07:28:15.410Z,-9.60
2024-01-11T07:30:42.116Z,-9.50
2024-01-11T07:33:10.567Z,-9.41
2024-01-11T07:35:37.545Z,-9.32
2024-01-11T07:38:04.346Z,-9.27
2024-01-11T07:40:33.629Z,-9.21
2024-01-11T07:43:01.767Z,-9.11
2024-01-11T07:45:28.239Z,-9.06
2024-01-11T07:47:54.720Z,-8.98
2024-01-11T07:50:21.240Z,-8.91
2024-01-11T07:52:47.775Z,-8.85
2024-01-11T07:55:14.515Z,-8.86
2024-01-11T07:57:41.302Z,-8.78
2024-01-11T08:00:08.587Z,-8.71
2024-01-11T08:02:35.490Z,-8.66
2024-01-11T08:05:02.221Z,-8.63
2024-01-11T08:07:29.097Z,-8.57
2024-01-11T08:09:56.369Z,-8.53
2024-01-11T08:12:23.020Z,-8.56
2024-01-11T08:14:50.156Z,-8.58
2024-01-11T08:17:16.785Z,-8.52
2024-01-11T08:19:46.256Z,-8.45
2024-01-11T08:22:12.675Z,-8.34
2024-01-11T08:24:39.437Z,-8.23
2024-01-11T08:27:06.800Z,-8.18
2024-01-11T08:29:34.473Z,-8.10
2024-01-11T08:32:15.252Z,-8.01
2024-01-11T08:34:50.729Z,-7.93
2024-01-11T08:37:17.514Z,-7.85
2024-01-11T08:39:44.075Z,-7.75
2024-01-11T08:42:10.763Z,-7.71
2024-01-11T08:44:37.321Z,-7.73
2024-01-11T08:47:04.780Z,-7.67
2024-01-11T08:49:31.405Z,-7.63
2024-01-11T08:51:57.899Z,-7.53
2024-01-11T08:54:24.296Z,-7.53
2024-01-11T08:56:50.770Z,-7.39
2024-01-11T08:59:17.425Z,-7.36
2024-01-11T09:01:52.894Z,-7.31
2024-01-11T09:04:23.973Z,-7.28
2024-01-11T09:06:50.562Z,-7.23
2024-01-11T09:09:18.082Z,-7.16
2024-01-11T09:11:44.726Z,-7.09
2024-01-11T09:14:12.442Z,-7.02
2024-01-11T09:16:40.690Z,-6.88
2024-01-11T09:19:07.606Z,-6.81
2024-01-11T09:21:34.143Z,-6.75
2024-01-11T09:24:00.700Z,-6.63
2024-01-11T09:26:27.313Z,-6.57
2024-01-11T09:28:53.761Z,-6.43
2024-01-11T09:31:20.247Z,-6.32
2024-01-11T09:33:46.977Z,-6.18
2024-01-11T09:36:14.470Z,-6.09
2024-01-11T09:38:41.143Z,-6.18
2024-01-11T09:41:11.619Z,-6.05
2024-01-11T09:43:39.151Z,-6.03
2024-01-11T09:46:06.765Z,-5.84
2024-01-11T09:48:35.528Z,-5.78
2024-01-11T09:51:08.915Z,-5.83
2024-01-11T09:53:35.618Z,-5.80
2024-01-11T09:56:02.194Z,-5.82
2024-01-11T09:58:30.021Z,-5.77
2024-01-11T10:00:57.631Z,-5.56
2024-01-11T10:03:24.806Z,-5.56
2024-01-11T10:05:54.539Z,-5.47
2024-01-11T10:08:22.862Z,-5.28
2024-01-11T10:10:49.490Z,-5.17
2024-01-11T10:13:17.314Z,-5.30
2024-01-11T10:15:45.165Z,-5.36
2024-01-11T10:18:12.061Z,-5.26
2024-01-11T10:20:38.784Z,-5.10
2024-01-11T10:23:05.409Z,-5.08
2024-01-11T10:25:31.956Z,-4.93
2024-01-11T10:27:59.358Z,-4.98
2024-01-11T10:30:27.256Z,-4.91
2024-01-11T10:32:53.863Z,-4.90
2024-01-11T10:35:20.477Z,-4.88
2024-01-11T10:37:51.742Z,-4.72
2024-01-11T10:40:21.981Z,-4.72
2024-01-11T10:42:52.672Z,-4.59
2024-01-11T10:45:20.560Z,-4.56
2024-01-11T10:48:02.835Z,-4.57
2024-01-11T10:50:41.292Z,-4.43
2024-01-11T10:53:30.914Z,-4.43
2024-01-11T10:56:00.019Z,-4.29
2024-01-11T10:58:30.352Z,-4.13
2024-01-11T11:00:58.474Z,-4.17
2024-01-11T11:03:26.356Z,-4.25
2024-01-11T11:05:57.861Z,-4.24
2024-01-11T11:08:28.410Z,-4.12
2024-01-11T11:10:58.871Z,-4.09
2024-01-11T11:13:26.701Z,-3.99
2024-01-11T11:15:54.348Z,-3.98
2024-01-11T11:18:22.094Z,-3.84
2024-01-11T11:20:49.097Z,-3.60
2024-01-11T11:23:20.476Z,-3.75
2024-01-11T11:25:48.601Z,-3.67
2024-01-11T11:28:22.207Z,-3.70
2024-01-11T11:30:54.273Z,-3.61
2024-01-11T11:33:24.797Z,-3.41
2024-01-11T11:35:56.198Z,-3.32
2024-01-11T11:38:24.655Z,-3.27
2024-01-11T11:40:53.942Z,-3.26
2024-01-11T11:43:22.679Z,-3.27
2024-01-11T11:45:50.759Z,-3.19
2024-01-11T11:48:33.280Z,-3.12
2024-01-11T11:51:10.194Z,-3.18
2024-01-11T11:53:41.193Z,-2.96
2024-01-11T11:56:10.772Z,-2.95
2024-01-11T11:58:37.879Z,-2.84
2024-01-11T12:01:05.302Z,-2.72
2024-01-11T12:03:39.433Z,-2.64
2024-01-11T12:06:09.475Z,-2.62
2024-01-11T12:08:37.628Z,-2.51
2024-01-11T12:11:05.123Z,-2.45
2024-01-11T12:13:33.497Z,-2.40
2024-01-11T12:16:00.164Z,-2.38
2024-01-11T12:18:26.877Z,-2.19
2024-01-11T12:20:54.529Z,-2.20
2024-01-11T12:23:21.256Z,-2.09
2024-01-11T12:25:48.411Z,-2.10
2024-01-11T12:28:15.607Z,-2.08
2024-01-11T12:30:43.489Z,-2.03
2024-01-11T12:33:11.288Z,-1.99
2024-01-11T12:35:38.629Z,-1.94
2024-01-11T12:38:12.632Z,-1.85
2024-01-11T12:40:39.744Z,-1.76
2024-01-11T12:43:07.004Z,-1.72
2024-01-11T12:45:33.758Z,-1.68
2024-01-11T12:48:04.998Z,-1.69
2024-01-11T12:50:34.973Z,-1.74
2024-01-11T12:53:21.726Z,-1.75
2024-01-11T12:55:55.258Z,-1.71
2024-01-11T12:58:27.229Z,-1.68
2024-01-11T13:00:54.984Z,-1.60
2024-01-11T13:03:21.929Z,-1.55
2024-01-11T13:05:49.381Z,-1.51
2024-01-11T13:08:18.498Z,-1.43
2024-01-11T13:10:48.805Z,-1.35
2024-01-11T13:13:15.458Z,-1.30
2024-01-11T13:15:41.872Z,-1.22
2024-01-11T13:18:08.442Z,-1.17
2024-01-11T13:20:35.148Z,-1.12
2024-01-11T13:23:21.962Z,-1.08
2024-01-11T13:25:53.348Z,-1.02
2024-01-11T13:28:20.555Z,-0.96
2024-01-11T13:30:48.477Z,-0.97
2024-01-11T13:33:17.817Z,-0.95
2024-01-11T13:35:45.065Z,-0.91
2024-01-11T13:38:12.126Z,-0.92
2024-01-11T13:40:40.791Z,-0.90
2024-01-11T13:43:07.381Z,-0.83
2024-01-11T13:45:33.815Z,-0.81
2024-01-11T13:48:00.699Z,-0.79
2024-01-11T13:50:27.560Z,-0.73
2024-01-11T13:52:54.530Z,-0.72
2024-01-11T13:55:23.876Z,-0.64
2024-01-11T13:57:51.341Z,-0.55
2024-01-11T14:00:20.246Z,-0.53
2024-01-11T14:02:48.718Z,-0.44
2024-01-11T14:05:18.455Z,-0.43
2024-01-11T14:07:46.148Z,-0.43
2024-01-11T14:10:14.368Z,-0.39
2024-01-11T14:12:41.461Z,-0.36
2024-01-11T14:15:14.536Z,-0.35
2024-01-11T14:17:42.376Z,-0.33
2024-01-11T14:20:15.044Z,-0.31
2024-01-11T14:22:42.932Z,-0.24
2024-01-11T14:25:12.073Z,-0.25
2024-01-11T14:27:38.934Z,-0.27
2024-01-11T14:30:07.639Z,-0.18
2024-01-11T14:32:37.163Z,-0.21
2024-01-11T14:35:08.611Z,-0.22
2024-01-11T14:37:36.790Z,-0.25
2024-01-11T14:40:03.556Z,-0.23
2024-01-11T14:42:30.105Z,-0.27
2024-01-11T14:44:57.264Z,-0.23
2024-01-11T14:47:24.258Z,-0.27
2024-01-11T14:49:51.102Z,-0.28
2024-01-11T14:52:19.741Z,-0.34
2024-01-11T14:54:49.153Z,-0.31
2024-01-11T14:57:16.765Z,-0.38
2024-01-11T14:59:44.199Z,-0.47
2024-01-11T15:02:11.854Z,-0.45
2024-01-11T15:04:38.724Z,-0.51
2024-01-11T15:07:06.086Z,-0.58
2024-01-11T15:09:33.209Z,-0.62
2024-01-11T15:12:01.257Z,-0.49
2024-01-11T15:14:28.462Z,-0.54
2024-01-11T15:17:02.272Z,-0.54
2024-01-11T15:19:29.270Z,-0.60
2024-01-11T15:21:56.028Z,-0.66
2024-01-11T15:24:22.602Z,-0.65
2024-01-11T15:26:50.683Z,-0.71
2024-01-11T15:29:18.458Z,-0.76
2024-01-11T15:31:47.352Z,-0.83
2024-01-11T15:34:15.712Z,-0.81
2024-01-11T15:36:43.338Z,-0.65
2024-01-11T15:39:21.756Z,-0.83
2024-01-11T15:41:58.506Z,-0.89
2024-01-11T15:44:28.363Z,-0.82
2024-01-11T15:46:56.317Z,-0.94
2024-01-11T15:49:23.551Z,-0.99
2024-01-11T15:51:50.143Z,-1.07
2024-01-11T15:54:16.623Z,-1.18
2024-01-11T15:56:43.095Z,-1.25
2024-01-11T15:59:09.724Z,-1.31
2024-01-11T16:01:46.587Z,-1.38
2024-01-11T16:04:22.516Z,-1.39
2024-01-11T16:06:49.108Z,-1.46
2024-01-11T16:09:16.388Z,-1.67
2024-01-11T16:11:42.965Z,-1.84
2024-01-11T16:14:09.434Z,-1.88
2024-01-11T16:16:36.073Z,-1.95
2024-01-11T16:19:02.701Z,-1.93
2024-01-11T16:21:32.622Z,-1.93
2024-01-11T16:24:02.914Z,-2.04
2024-01-11T16:26:30.301Z,-2.07
2024-01-11T16:28:56.910Z,-2.05
2024-01-11T16:31:26.772Z,-2.05
2024-01-11T16:33:54.316Z,-2.12
2024-01-11T16:36:21.092Z,-2.09
2024-01-11T16:38:47.771Z,-2.17
2024-01-11T16:41:14.508Z,-2.16
2024-01-11T16:43:41.091Z,-2.19
2024-01-11T16:46:08.738Z,-2.30
2024-01-11T16:48:35.453Z,-2.35
2024-01-11T16:51:02.222Z,-2.40
2024-01-11T16:53:28.807Z,-2.44
2024-01-11T16:55:56.173Z,-2.41
2024-01-11T16:58:22.838Z,-2.45
2024-01-11T17:00:49.390Z,-2.31
2024-01-11T17:03:16.175Z,-2.28
2024-01-11T17:05:43.135Z,-2.33
2024-01-11T17:08:09.708Z,-2.55
2024-01-11T17:10:37.992Z,-2.62
2024-01-11T17:13:04.896Z,-2.73
2024-01-11T17:15:31.712Z,-2.85
2024-01-11T17:17:58.442Z,-2.89
2024-01-11T17:20:25.114Z,-2.88
2024-01-11T17:22:53.021Z,-3.05
2024-01-11T17:25:20.347Z,-3.21
2024-01-11T17:27:46.885Z,-3.26
2024-01-11T17:30:13.639Z,-3.34
2024-01-11T17:32:40.689Z,-3.47
2024-01-11T17:35:08.497Z,-3.61
2024-01-11T17:37:35.741Z,-3.69
2024-01-11T17:40:02.544Z,-3.71
2024-01-11T17:42:29.258Z,-3.71
2024-01-11T17:44:58.576Z,-3.71
2024-01-11T17:47:25.956Z,-3.79
2024-01-11T17:49:52.737Z,-3.80
2024-01-11T17:52:21.651Z,-3.88
2024-01-11T17:54:48.274Z,-4.05
2024-01-11T17:57:15.459Z,-4.17
2024-01-11T17:59:45.575Z,-4.20
2024-01-11T18:02:12.267Z,-4.25
2024-01-11T18:04:38.889Z,-4.30
2024-01-11T18:07:05.711Z,-4.29
2024-01-11T18:09:35.467Z,-4.32
2024-01-11T18:12:02.438Z,-4.36
2024-01-11T18:14:28.979Z,-4.42
2024-01-11T18:16:55.458Z,-4.49
2024-01-11T18:19:22.071Z,-4.52
2024-01-11T18:21:48.658Z,-4.50
2024-01-11T18:24:15.228Z,-4.42
2024-01-11T18:26:41.875Z,-4.32
2024-01-11T18:29:08.571Z,-4.28
2024-01-11T18:31:35.787Z,-4.25
2024-01-11T18:34:03.319Z,-4.36
2024-01-11T18:36:29.889Z,-4.33
2024-01-11T18:38:58.564Z,-4.31
2024-01-11T18:41:25.388Z,-4.43
2024-01-11T18:43:51.831Z,-4.53
2024-01-11T18:46:18.291Z,-4.62
2024-01-11T18:48:44.934Z,-4.72
2024-01-11T18:51:11.749Z,-4.77
2024-01-11T18:53:38.525Z,-4.82
2024-01-11T18:56:16.433Z,-4.85
2024-01-11T18:58:43.745Z,-4.93
2024-01-11T19:01:10.509Z,-4.97
2024-01-11T19:03:39.862Z,-4.97
2024-01-11T19:06:10.182Z,-4.97
2024-01-11T19:08:38.351Z,-4.99
2024-01-11T19:11:06.980Z,-4.99
2024-01-11T19:13:33.514Z,-4.99
2024-01-11T19:16:00.458Z,-5.02
2024-01-11T19:18:27.161Z,-5.13
2024-01-11T19:20:55.067Z,-5.19
2024-01-11T19:23:26.687Z,-5.20
2024-01-11T19:25:54.929Z,-5.23
2024-01-11T19:28:21.519Z,-5.26
2024-01-11T19:30:48.988Z,-5.32
2024-01-11T19:33:17.798Z,-5.43
2024-01-11T19:35:44.975Z,-5.44
2024-01-11T19:38:13.320Z,-5.37
2024-01-11T19:40:41.659Z,-5.44
2024-01-11T19:43:08.758Z,-5.47
2024-01-11T19:45:35.548Z,-5.49
2024-01-11T19:48:02.244Z,-5.53
2024-01-11T19:50:29.203Z,-5.51
2024-01-11T19:52:55.624Z,-5.55
2024-01-11T19:55:22.135Z,-5.59
2024-01-11T19:57:48.755Z,-5.55
2024-01-11T20:00:15.639Z,-5.61
2024-01-11T20:02:42.285Z,-5.64
2024-01-11T20:05:08.950Z,-5.61
2024-01-11T20:07:36.126Z,-5.61
2024-01-11T20:10:02.633Z,-5.61
2024-01-11T20:12:29.627Z,-5.65
2024-01-11T20:14:56.081Z,-5.72
2024-01-11T20:17:22.632Z,-5.80
2024-01-11T20:19:52.445Z,-5.85
2024-01-11T20:22:19.820Z,-5.88
2024-01-11T20:24:46.899Z,-5.85
2024-01-11T20:27:13.470Z,-5.88
2024-01-11T20:29:41.348Z,-5.90
2024-01-11T20:32:07.922Z,-5.94
2024-01-11T20:34:35.290Z,-5.95
2024-01-11T20:37:02.026Z,-5.99
2024-01-11T20:39:28.580Z,-6.03
2024-01-11T20:41:58.398Z,-6.06
2024-01-11T20:44:25.338Z,-6.12
2024-01-11T20:46:51.896Z,-6.23
2024-01-11T20:49:18.462Z,-6.32
2024-01-11T20:51:46.091Z,-6.37
2024-01-11T20:54:12.498Z,-6.35
2024-01-11T20:56:43.945Z,-6.28
2024-01-11T20:59:11.106Z,-6.36
2024-01-11T21:01:37.626Z,-6.39
2024-01-11T21:04:04.193Z,-6.36
2024-01-11T21:06:30.702Z,-6.34
2024-01-11T21:08:57.400Z,-6.40
2024-01-11T21:11:24.504Z,-6.45
2024-01-11T21:13:52.514Z,-6.57
2024-01-11T21:16:19.126Z,-6.62
2024-01-11T21:18:49.769Z,-6.64
2024-01-11T21:21:18.221Z,-6.60
2024-01-11T21:23:44.818Z,-6.59
2024-01-11T21:26:11.320Z,-6.65
2024-01-11T21:28:37.828Z,-6.67
2024-01-11T21:31:04.825Z,-6.74
2024-01-11T21:33:31.370Z,-6.74
2024-01-11T21:35:57.968Z,-6.78
2024-01-11T21:38:27.561Z,-6.84
2024-01-11T21:40:54.067Z,-6.89
2024-01-11T21:43:20.511Z,-6.92
2024-01-11T21:45:46.952Z,-6.94
2024-01-11T21:48:13.535Z,-6.97
2024-01-11T21:50:40.272Z,-6.99
2024-01-11T21:53:06.749Z,-7.00
2024-01-11T21:55:33.931Z,-7.00
2024-01-11T21:58:00.730Z,-7.01
2024-01-11T22:00:27.293Z,-7.05
2024-01-11T22:02:53.916Z,-7.12
2024-01-11T22:05:20.794Z,-7.12
2024-01-11T22:07:51.624Z,-7.14
2024-01-11T22:10:18.479Z,-7.19
2024-01-11T22:12:45.019Z,-7.20
2024-01-11T22:15:11.632Z,-7.22
2024-01-11T22:17:38.497Z,-7.20
2024-01-11T22:22:53.017Z,-7.21
2024-01-11T22:25:27.276Z,-7.24
2024-01-11T22:30:42.135Z,-7.27
2024-01-11T22:35:59.956Z,-7.44
2024-01-11T22:38:55.120Z,-7.51
2024-01-11T22:41:25.113Z,-7.56
2024-01-11T22:44:01.070Z,-7.56
2024-01-11T22:46:37.256Z,-7.53
2024-01-11T22:49:05.888Z,-7.47
2024-01-11T22:51:34.331Z,-7.43
2024-01-11T22:54:04.101Z,-7.45
2024-01-11T22:56:34.648Z,-7.44
2024-01-11T22:59:02.075Z,-7.45
2024-01-11T23:01:28.490Z,-7.46
2024-01-11T23:04:09.204Z,-7.51
2024-01-11T23:06:38.152Z,-7.58
2024-01-11T23:09:04.911Z,-7.69
2024-01-11T23:11:31.846Z,-7.73
2024-01-11T23:13:58.581Z,-7.82
2024-01-11T23:16:25.077Z,-7.90
2024-01-11T23:18:51.694Z,-7.88
2024-01-11T23:21:18.215Z,-7.88
2024-01-11T23:23:44.714Z,-7.85
2024-01-11T23:26:11.236Z,-7.92
2024-01-11T23:28:37.673Z,-7.94
2024-01-11T23:31:05.200Z,-8.03
2024-01-11T23:33:32.026Z,-8.10
2024-01-11T23:35:59.330Z,-8.14
2024-01-11T23:38:26.131Z,-8.14
2024-01-11T23:40:53.250Z,-8.21
2024-01-11T23:43:20.087Z,-8.24
2024-01-11T23:45:46.765Z,-8.31
2024-01-11T23:48:13.317Z,-8.36
2024-01-11T23:50:40.033Z,-8.37
2024-01-11T23:53:06.649Z,-8.37
2024-01-11T23:55:33.657Z,-8.37
2024-01-11T23:58:00.145Z,-8.38
